createdAt,value
2018-11-07T00:01:08.908Z,17.53
2018-11-07T00:03:37.225Z,19.40
2018-11-07T00:06:05.455Z,16.90
2018-11-07T00:08:33.798Z,17.27
2018-11-07T00:11:01.932Z,16.33
2018-11-07T00:13:30.170Z,16.00
2018-11-07T00:15:58.506Z,17.33
2018-11-07T00:18:26.758Z,17.67
2018-11-07T00:20:54.988Z,15.87
2018-11-07T00:23:23.249Z,16.37
2018-11-07T00:25:51.509Z,17.77
2018-11-07T00:28:19.832Z,18.00
2018-11-07T00:30:48.089Z,17.93
2018-11-07T00:33:16.344Z,19.03
2018-11-07T00:35:44.571Z,17.90
2018-11-07T00:38:12.850Z,15.97
2018-11-07T00:40:41.087Z,16.00
2018-11-07T00:43:09.403Z,16.83
2018-11-07T00:45:37.664Z,17.20
2018-11-07T00:48:05.939Z,17.30
2018-11-07T00:50:34.287Z,18.30
2018-11-07T00:53:02.535Z,17.57
2018-11-07T00:55:30.791Z,18.13
2018-11-07T00:57:59.070Z,16.57
2018-11-07T01:00:28.017Z,20.43
2018-11-07T01:02:56.335Z,18.87
2018-11-07T01:05:24.602Z,18.27
2018-11-07T01:07:53.423Z,18.03
2018-11-07T01:10:22.640Z,17.63
2018-11-07T01:12:51.599Z,16.93
2018-11-07T01:15:19.826Z,17.70
2018-11-07T01:17:48.071Z,19.10
2018-11-07T01:20:16.326Z,18.33
2018-11-07T01:22:44.907Z,17.63
2018-11-07T01:25:13.148Z,19.93
2018-11-07T01:27:41.475Z,17.30
2018-11-07T01:30:11.826Z,17.47
2018-11-07T01:32:41.268Z,17.67
2018-11-07T01:35:09.927Z,18.43
2018-11-07T01:37:38.393Z,17.70
2018-11-07T01:40:11.291Z,19.70
2018-11-07T01:42:39.637Z,19.37
2018-11-07T01:45:08.935Z,16.87
2018-11-07T01:47:37.239Z,19.17
2018-11-07T01:50:07.154Z,19.43
2018-11-07T01:52:35.408Z,18.47
2018-11-07T01:55:03.856Z,17.23
2018-11-07T01:57:32.322Z,18.37
2018-11-07T02:00:00.568Z,18.13
2018-11-07T02:02:28.832Z,17.70
2018-11-07T02:04:57.097Z,17.57
2018-11-07T02:07:25.487Z,16.90
2018-11-07T02:09:53.740Z,17.83
2018-11-07T02:12:21.995Z,17.47
2018-11-07T02:14:50.283Z,16.93
2018-11-07T02:17:18.519Z,16.63
2018-11-07T02:19:46.726Z,18.33
2018-11-07T02:22:14.951Z,17.63
2018-11-07T02:24:43.155Z,16.67
2018-11-07T02:27:11.418Z,15.93
2018-11-07T02:29:40.246Z,15.90
2018-11-07T02:32:08.483Z,17.27
2018-11-07T02:34:36.999Z,16.17
2018-11-07T02:37:05.547Z,16.40
2018-11-07T02:39:33.789Z,15.80
2018-11-07T02:42:02.116Z,16.47
2018-11-07T02:44:30.295Z,15.30
2018-11-07T02:46:59.219Z,15.73
2018-11-07T02:49:27.504Z,15.00
2018-11-07T02:51:55.899Z,14.70
2018-11-07T02:54:24.115Z,14.97
2018-11-07T02:56:52.367Z,15.13
2018-11-07T02:59:20.611Z,14.73
2018-11-07T03:01:48.839Z,14.17
2018-11-07T03:04:17.103Z,14.67
2018-11-07T03:06:45.334Z,13.83
2018-11-07T03:09:13.645Z,13.57
2018-11-07T03:11:41.916Z,15.47
2018-11-07T03:14:10.156Z,14.90
2018-11-07T03:16:38.627Z,14.73
2018-11-07T03:19:07.231Z,15.17
2018-11-07T03:21:35.504Z,15.07
2018-11-07T03:24:03.767Z,14.30
2018-11-07T03:26:31.988Z,13.57
2018-11-07T03:29:00.196Z,13.93
2018-11-07T03:31:28.440Z,15.10
2018-11-07T03:33:56.703Z,13.37
2018-11-07T03:36:24.919Z,14.23
2018-11-07T03:38:53.238Z,14.40
2018-11-07T03:41:21.440Z,13.73
2018-11-07T03:43:49.697Z,13.17
2018-11-07T03:46:18.059Z,14.57
2018-11-07T03:48:46.317Z,12.53
2018-11-07T03:51:14.586Z,13.23
2018-11-07T03:53:42.875Z,12.17
2018-11-07T03:56:11.123Z,13.07
2018-11-07T03:58:39.352Z,13.30
2018-11-07T04:01:10.675Z,12.90
2018-11-07T04:03:38.908Z,11.97
2018-11-07T04:06:07.180Z,13.10
2018-11-07T04:08:36.117Z,12.90
2018-11-07T04:11:04.527Z,12.10
2018-11-07T04:13:32.801Z,11.77
2018-11-07T04:16:01.031Z,10.77
2018-11-07T04:18:29.254Z,13.03
2018-11-07T04:20:57.528Z,11.63
2018-11-07T04:23:25.794Z,10.97
2018-11-07T04:25:54.107Z,10.47
2018-11-07T04:28:22.375Z,10.20
2018-11-07T04:30:50.623Z,10.70
2018-11-07T04:33:18.840Z,10.43
2018-11-07T04:35:47.061Z,11.03
2018-11-07T04:38:15.326Z,11.10
2018-11-07T04:40:43.576Z,10.03
2018-11-07T04:43:11.882Z,10.13
2018-11-07T04:45:40.131Z,10.70
2018-11-07T04:48:08.371Z,10.47
2018-11-07T04:50:36.611Z,10.40
2018-11-07T04:53:05.075Z,8.90
2018-11-07T04:55:33.384Z,10.90
2018-11-07T04:58:01.627Z,11.17
2018-11-07T05:00:30.276Z,9.93
2018-11-07T05:02:58.613Z,9.90
2018-11-07T05:05:26.872Z,10.10
2018-11-07T05:07:55.237Z,10.53
2018-11-07T05:10:23.485Z,10.53
2018-11-07T05:12:51.740Z,8.90
2018-11-07T05:15:19.983Z,9.00
2018-11-07T05:17:48.823Z,10.37
2018-11-07T05:20:17.067Z,10.33
2018-11-07T05:22:45.319Z,9.10
2018-11-07T05:25:13.572Z,10.47
2018-11-07T05:27:42.863Z,10.70
2018-11-07T05:30:11.784Z,11.17
2018-11-07T05:32:40.669Z,12.20
2018-11-07T05:35:09.029Z,15.30
2018-11-07T05:37:37.292Z,16.93
2018-11-07T05:40:05.674Z,15.50
2018-11-07T05:42:33.963Z,15.50
2018-11-07T05:45:02.260Z,15.63
2018-11-07T05:47:30.536Z,15.40
2018-11-07T05:49:58.839Z,14.57
2018-11-07T05:52:27.309Z,13.50
2018-11-07T05:54:55.596Z,13.63
2018-11-07T05:57:23.831Z,15.50
2018-11-07T05:59:52.060Z,16.70
2018-11-07T06:02:20.335Z,16.53
2018-11-07T06:04:48.639Z,18.00
2018-11-07T06:07:16.890Z,17.37
2018-11-07T06:09:45.268Z,19.87
2018-11-07T06:12:13.508Z,19.43
2018-11-07T06:14:41.747Z,18.60
2018-11-07T06:17:09.970Z,17.97
2018-11-07T06:19:39.151Z,19.57
2018-11-07T06:22:07.498Z,18.30
2018-11-07T06:24:35.808Z,22.82
2018-11-07T06:27:04.018Z,17.97
2018-11-07T06:29:32.315Z,18.73
2018-11-07T06:32:00.550Z,16.77
2018-11-07T06:34:29.083Z,17.70
2018-11-07T06:36:57.309Z,15.47
2018-11-07T06:39:25.578Z,17.77
2018-11-07T06:41:53.802Z,18.53
2018-11-07T06:44:22.612Z,18.87
2018-11-07T06:46:51.180Z,21.57
2018-11-07T06:49:19.414Z,19.67
2018-11-07T06:51:47.743Z,19.87
2018-11-07T06:54:16.017Z,19.17
2018-11-07T06:56:44.263Z,19.10
2018-11-07T06:59:12.575Z,18.40
2018-11-07T07:01:40.987Z,17.00
2018-11-07T07:04:09.241Z,17.83
2018-11-07T07:06:37.577Z,16.13
2018-11-07T07:09:07.348Z,15.03
2018-11-07T07:11:35.738Z,14.43
2018-11-07T07:14:04.031Z,13.97
2018-11-07T07:16:32.275Z,13.97
2018-11-07T07:19:00.674Z,15.10
2018-11-07T07:21:28.895Z,14.17
2018-11-07T07:23:57.135Z,13.17
2018-11-07T07:26:25.376Z,12.77
2018-11-07T07:28:53.619Z,12.60
2018-11-07T07:31:21.867Z,13.27
2018-11-07T07:33:50.753Z,12.50
2018-11-07T07:36:18.963Z,12.27
2018-11-07T07:38:47.283Z,12.30
2018-11-07T07:41:15.533Z,12.50
2018-11-07T07:43:43.747Z,12.33
2018-11-07T07:46:12.010Z,11.90
2018-11-07T07:48:40.615Z,12.80
2018-11-07T07:51:08.880Z,13.77
2018-11-07T07:53:37.576Z,12.97
2018-11-07T07:56:05.808Z,12.83
2018-11-07T07:58:34.076Z,13.77
2018-11-07T08:01:02.323Z,14.53
2018-11-07T08:03:31.491Z,14.63
2018-11-07T08:05:59.810Z,13.87
2018-11-07T08:08:28.084Z,12.90
2018-11-07T08:10:56.336Z,13.63
2018-11-07T08:13:25.566Z,13.33
2018-11-07T08:15:54.467Z,13.90
2018-11-07T08:18:24.159Z,12.57
2018-11-07T08:20:52.373Z,12.97
2018-11-07T08:23:20.779Z,16.77
2018-11-07T08:25:49.059Z,20.83
2018-11-07T08:28:17.280Z,19.90
2018-11-07T08:30:45.535Z,19.67
2018-11-07T08:33:13.808Z,21.73
2018-11-07T08:35:42.773Z,22.93
2018-11-07T08:38:11.013Z,22.33
2018-11-07T08:40:39.602Z,20.60
2018-11-07T08:43:07.860Z,21.23
2018-11-07T08:45:36.455Z,20.87
2018-11-07T08:48:04.812Z,20.33
2018-11-07T08:50:34.208Z,21.37
2018-11-07T08:53:02.419Z,22.40
2018-11-07T08:55:30.839Z,20.93
2018-11-07T08:57:59.261Z,22.17
2018-11-07T09:00:30.133Z,23.77
2018-11-07T09:02:58.380Z,21.70
2018-11-07T09:05:26.680Z,20.63
2018-11-07T09:07:54.917Z,19.80
2018-11-07T09:10:24.074Z,22.57
2018-11-07T09:12:52.306Z,21.97
2018-11-07T09:15:21.802Z,19.57
2018-11-07T09:17:50.043Z,19.53
2018-11-07T09:20:19.812Z,20.87
2018-11-07T09:22:47.992Z,20.80
2018-11-07T09:25:16.635Z,20.47
2018-11-07T09:27:45.673Z,20.57
2018-11-07T09:30:16.051Z,22.53
2018-11-07T09:32:44.288Z,19.90
2018-11-07T09:35:13.102Z,21.80
2018-11-07T09:37:41.307Z,18.63
2018-11-07T09:40:13.221Z,22.67
2018-11-07T09:42:42.062Z,23.40
2018-11-07T09:45:12.106Z,21.80
2018-11-07T09:47:40.914Z,22.10
2018-11-07T09:50:09.966Z,22.30
2018-11-07T09:52:38.717Z,24.07
2018-11-07T09:55:08.811Z,21.63
2018-11-07T09:57:37.305Z,22.63
2018-11-07T10:00:15.359Z,22.73
2018-11-07T10:02:43.879Z,20.17
2018-11-07T10:05:12.877Z,18.87
2018-11-07T10:07:41.461Z,20.57
2018-11-07T10:10:11.899Z,20.57
2018-11-07T10:12:40.678Z,22.33
2018-11-07T10:15:09.567Z,20.20
2018-11-07T10:17:37.987Z,19.40
2018-11-07T10:20:09.701Z,20.57
2018-11-07T10:22:37.985Z,21.03
2018-11-07T10:25:06.622Z,22.27
2018-11-07T10:27:35.177Z,20.67
2018-11-07T10:30:03.655Z,19.63
2018-11-07T10:32:31.599Z,23.37
2018-11-07T10:35:00.307Z,20.50
2018-11-07T10:37:32.464Z,22.50
2018-11-07T10:39:57.221Z,21.37
2018-11-07T10:42:25.419Z,23.77
2018-11-07T10:44:53.819Z,22.03
2018-11-07T10:47:22.095Z,23.23
2018-11-07T10:49:50.948Z,23.07
2018-11-07T10:52:19.216Z,23.37
2018-11-07T10:54:47.503Z,21.70
2018-11-07T10:57:15.759Z,24.47
2018-11-07T10:59:47.019Z,24.00
2018-11-07T11:02:20.591Z,22.70
2018-11-07T11:04:48.935Z,23.13
2018-11-07T11:07:17.203Z,22.17
2018-11-07T11:09:45.521Z,21.30
2018-11-07T11:12:13.792Z,21.07
2018-11-07T11:14:42.155Z,19.30
2018-11-07T11:17:10.453Z,16.90
2018-11-07T11:19:38.695Z,17.57
2018-11-07T11:22:07.007Z,17.63
2018-11-07T11:24:35.227Z,17.57
2018-11-07T11:27:03.489Z,16.90
2018-11-07T11:29:31.883Z,14.37
2018-11-07T11:32:01.181Z,13.77
2018-11-07T11:34:29.510Z,14.20
2018-11-07T11:36:57.747Z,12.23
2018-11-07T11:39:27.856Z,11.50
2018-11-07T11:41:56.135Z,12.17
2018-11-07T11:44:24.663Z,12.50
2018-11-07T11:46:52.995Z,11.43
2018-11-07T11:49:21.423Z,12.63
2018-11-07T11:51:49.621Z,15.10
2018-11-07T11:54:17.876Z,12.87
2018-11-07T11:56:46.080Z,15.57
2018-11-07T11:59:14.625Z,13.47
2018-11-07T12:01:42.604Z,14.93
2018-11-07T12:04:10.835Z,16.87
2018-11-07T12:06:39.108Z,14.73
2018-11-07T12:09:08.236Z,13.03
2018-11-07T12:11:36.654Z,12.60
2018-11-07T12:14:05.107Z,12.67
2018-11-07T12:16:34.083Z,11.00
2018-11-07T12:19:02.307Z,12.17
2018-11-07T12:21:30.636Z,10.83
2018-11-07T12:23:58.914Z,12.27
2018-11-07T12:26:27.848Z,11.23
2018-11-07T12:28:56.145Z,11.10
2018-11-07T12:31:24.404Z,10.17
2018-11-07T12:33:52.652Z,11.00
2018-11-07T12:36:20.995Z,9.77
2018-11-07T12:38:50.488Z,9.43
2018-11-07T12:41:18.801Z,11.33
2018-11-07T12:43:47.196Z,10.43
2018-11-07T12:46:15.496Z,9.80
2018-11-07T12:48:43.773Z,8.77
2018-11-07T12:51:12.965Z,10.83
2018-11-07T12:53:41.189Z,10.93
2018-11-07T12:56:09.437Z,11.53
2018-11-07T12:58:37.695Z,11.97
2018-11-07T13:01:06.044Z,10.60
2018-11-07T13:03:35.297Z,10.83
2018-11-07T13:06:03.564Z,8.97
2018-11-07T13:08:31.768Z,8.07
2018-11-07T13:11:00.040Z,8.03
2018-11-07T13:13:28.259Z,7.57
2018-11-07T13:15:56.528Z,7.03
2018-11-07T13:18:24.806Z,8.30
2018-11-07T13:20:53.111Z,6.90
2018-11-07T13:23:21.444Z,7.87
2018-11-07T13:25:49.679Z,7.87
2018-11-07T13:28:17.959Z,7.80
2018-11-07T13:30:46.127Z,9.33
2018-11-07T13:33:14.316Z,7.17
2018-11-07T13:35:42.581Z,7.13
2018-11-07T13:38:11.265Z,8.03
2018-11-07T13:40:39.183Z,7.17
2018-11-07T13:43:07.426Z,7.27
2018-11-07T13:45:36.362Z,8.10
2018-11-07T13:48:04.915Z,8.80
2018-11-07T13:50:33.195Z,8.27
2018-11-07T13:53:01.478Z,7.20
2018-11-07T13:55:29.699Z,6.97
2018-11-07T13:57:58.265Z,6.87
2018-11-07T14:00:27.020Z,6.97
2018-11-07T14:02:55.218Z,7.37
2018-11-07T14:05:23.496Z,6.00
2018-11-07T14:07:52.165Z,7.47
2018-11-07T14:10:22.565Z,7.10
2018-11-07T14:12:50.937Z,6.07
2018-11-07T14:15:19.164Z,7.63
2018-11-07T14:17:47.471Z,5.90
2018-11-07T14:20:15.781Z,6.90
2018-11-07T14:22:44.044Z,5.93
2018-11-07T14:25:12.925Z,6.10
2018-11-07T14:27:41.618Z,5.70
2018-11-07T14:30:12.201Z,6.07
2018-11-07T14:32:47.251Z,6.00
2018-11-07T14:35:15.492Z,5.53
2018-11-07T14:37:43.724Z,7.13
2018-11-07T14:40:12.417Z,5.97
2018-11-07T14:42:40.732Z,6.47
2018-11-07T14:45:10.260Z,5.43
2018-11-07T14:47:38.886Z,5.63
2018-11-07T14:50:08.190Z,6.37
2018-11-07T14:52:36.552Z,5.70
2018-11-07T14:55:04.976Z,5.20
2018-11-07T14:57:33.659Z,5.53
2018-11-07T15:00:02.100Z,5.40
2018-11-07T15:02:30.872Z,5.20
2018-11-07T15:04:59.075Z,5.60
2018-11-07T15:07:27.398Z,6.30
2018-11-07T15:09:55.639Z,4.63
2018-11-07T15:12:23.918Z,5.50
2018-11-07T15:14:52.683Z,5.23
2018-11-07T15:17:21.432Z,5.03
2018-11-07T15:19:49.884Z,5.63
2018-11-07T15:22:18.114Z,5.40
2018-11-07T15:24:46.524Z,5.47
2018-11-07T15:27:14.722Z,6.20
2018-11-07T15:29:42.939Z,5.70
2018-11-07T15:32:11.256Z,5.20
2018-11-07T15:34:39.527Z,4.77
2018-11-07T15:37:08.096Z,5.33
2018-11-07T15:39:36.661Z,6.80
2018-11-07T15:42:04.999Z,5.80
2018-11-07T15:44:33.312Z,5.67
2018-11-07T15:47:01.603Z,5.40
2018-11-07T15:49:29.926Z,6.97
2018-11-07T15:51:58.271Z,6.57
2018-11-07T15:54:26.427Z,5.27
2018-11-07T15:56:54.731Z,5.20
2018-11-07T15:59:22.984Z,5.93
2018-11-07T16:01:51.191Z,6.03
2018-11-07T16:04:19.450Z,5.63
2018-11-07T16:06:47.921Z,5.80
2018-11-07T16:09:16.237Z,5.80
2018-11-07T16:11:44.526Z,5.60
2018-11-07T16:14:12.787Z,6.73
2018-11-07T16:16:41.023Z,5.90
2018-11-07T16:19:09.261Z,5.93
2018-11-07T16:21:37.503Z,6.57
2018-11-07T16:24:06.331Z,7.20
2018-11-07T16:26:34.556Z,7.00
2018-11-07T16:29:02.841Z,7.47
2018-11-07T16:31:31.171Z,6.30
2018-11-07T16:33:59.431Z,6.70
2018-11-07T16:36:27.729Z,6.07
2018-11-07T16:38:55.911Z,5.97
2018-11-07T16:41:26.871Z,5.60
2018-11-07T16:43:55.364Z,6.87
2018-11-07T16:46:23.797Z,6.90
2018-11-07T16:48:52.005Z,6.50
2018-11-07T16:51:20.348Z,6.57
2018-11-07T16:53:48.580Z,5.90
2018-11-07T16:56:17.028Z,5.97
2018-11-07T16:58:45.172Z,5.87
2018-11-07T17:01:13.673Z,5.93
2018-11-07T17:03:42.101Z,6.23
2018-11-07T17:06:10.446Z,6.57
2018-11-07T17:08:39.154Z,5.73
2018-11-07T17:11:07.407Z,5.30
2018-11-07T17:13:36.443Z,5.70
2018-11-07T17:16:05.352Z,6.33
2018-11-07T17:18:33.612Z,5.70
2018-11-07T17:21:01.909Z,6.23
2018-11-07T17:23:30.141Z,6.43
2018-11-07T17:25:58.457Z,6.10
2018-11-07T17:28:26.705Z,5.83
2018-11-07T17:30:54.991Z,6.63
2018-11-07T17:33:23.667Z,5.53
2018-11-07T17:35:51.955Z,6.40
2018-11-07T17:38:21.289Z,6.50
2018-11-07T17:40:49.794Z,6.50
2018-11-07T17:43:18.135Z,6.53
2018-11-07T17:45:46.610Z,6.90
2018-11-07T17:48:15.005Z,6.50
2018-11-07T17:50:43.103Z,8.37
2018-11-07T17:53:11.503Z,6.63
2018-11-07T17:55:39.835Z,6.37
2018-11-07T17:58:08.125Z,5.47
2018-11-07T18:00:36.421Z,5.57
2018-11-07T18:03:05.192Z,6.27
2018-11-07T18:05:33.522Z,5.33
2018-11-07T18:08:01.809Z,6.10
2018-11-07T18:10:30.769Z,5.10
2018-11-07T18:12:58.995Z,5.20
2018-11-07T18:15:27.490Z,6.30
2018-11-07T18:17:55.819Z,5.50
2018-11-07T18:20:24.136Z,6.30
2018-11-07T18:22:52.395Z,6.63
2018-11-07T18:25:20.654Z,6.43
2018-11-07T18:27:48.895Z,6.73
2018-11-07T18:30:17.675Z,6.47
2018-11-07T18:32:46.679Z,6.03
2018-11-07T18:35:17.483Z,6.83
2018-11-07T18:37:45.883Z,7.13
2018-11-07T18:40:15.650Z,7.00
2018-11-07T18:42:43.926Z,6.40
2018-11-07T18:45:12.868Z,6.97
2018-11-07T18:47:43.425Z,7.97
2018-11-07T18:50:13.214Z,6.90
2018-11-07T18:52:41.495Z,6.37
2018-11-07T18:55:11.086Z,5.97
2018-11-07T18:57:39.417Z,5.97
2018-11-07T19:00:09.851Z,5.37
2018-11-07T19:02:38.108Z,6.30
2018-11-07T19:05:07.915Z,6.20
2018-11-07T19:07:38.893Z,6.50
2018-11-07T19:10:15.229Z,6.07
2018-11-07T19:12:45.290Z,5.93
2018-11-07T19:15:16.513Z,6.07
2018-11-07T19:17:47.296Z,6.20
2018-11-07T19:20:17.446Z,5.73
2018-11-07T19:22:46.726Z,6.33
2018-11-07T19:25:17.760Z,5.73
2018-11-07T19:27:48.501Z,6.53
2018-11-07T19:30:21.432Z,5.10
2018-11-07T19:32:51.845Z,5.60
2018-11-07T19:35:22.776Z,5.90
2018-11-07T19:37:51.843Z,6.30
2018-11-07T19:40:22.717Z,7.20
2018-11-07T19:42:51.726Z,5.90
2018-11-07T19:45:21.489Z,6.47
2018-11-07T19:47:50.955Z,5.50
2018-11-07T19:50:20.166Z,5.77
2018-11-07T19:52:52.517Z,6.83
2018-11-07T19:55:28.030Z,6.03
2018-11-07T19:57:59.537Z,6.10
2018-11-07T20:00:32.040Z,6.33
2018-11-07T20:03:01.272Z,7.07
2018-11-07T20:05:29.687Z,7.43
2018-11-07T20:07:58.554Z,5.70
2018-11-07T20:10:28.355Z,6.33
2018-11-07T20:12:56.639Z,7.80
2018-11-07T20:15:25.811Z,6.30
2018-11-07T20:17:56.071Z,6.87
2018-11-07T20:20:25.094Z,6.23
2018-11-07T20:22:55.981Z,6.43
2018-11-07T20:25:25.853Z,6.03
2018-11-07T20:27:55.166Z,6.27
2018-11-07T20:30:23.939Z,5.47
2018-11-07T20:32:52.642Z,6.00
2018-11-07T20:35:21.470Z,6.57
2018-11-07T20:37:51.575Z,6.37
2018-11-07T20:40:21.262Z,6.70
2018-11-07T20:42:49.551Z,6.05
2018-11-07T20:45:18.065Z,7.53
2018-11-07T20:47:46.539Z,6.20
2018-11-07T20:50:16.867Z,6.07
2018-11-07T20:52:45.779Z,6.20
2018-11-07T20:55:14.628Z,6.93
2018-11-07T20:57:42.968Z,6.70
2018-11-07T21:00:23.878Z,5.77
2018-11-07T21:02:52.411Z,7.10
2018-11-07T21:05:20.897Z,6.30
2018-11-07T21:07:49.160Z,6.10
2018-11-07T21:10:18.877Z,6.10
2018-11-07T21:12:47.543Z,5.77
2018-11-07T21:15:16.867Z,6.30
2018-11-07T21:17:45.351Z,5.47
2018-11-07T21:20:13.695Z,5.53
2018-11-07T21:22:42.555Z,5.83
2018-11-07T21:25:11.098Z,5.23
2018-11-07T21:27:39.684Z,5.30
2018-11-07T21:30:10.330Z,7.03
2018-11-07T21:32:38.868Z,6.67
2018-11-07T21:35:07.171Z,6.77
2018-11-07T21:37:35.443Z,7.70
2018-11-07T21:40:10.348Z,6.60
2018-11-07T21:42:38.965Z,6.40
2018-11-07T21:45:09.491Z,6.87
2018-11-07T21:47:38.784Z,5.70
2018-11-07T21:50:08.262Z,5.90
2018-11-07T21:52:36.646Z,6.30
2018-11-07T21:55:05.194Z,6.50
2018-11-07T21:57:33.434Z,6.20
2018-11-07T22:00:01.699Z,6.57
2018-11-07T22:02:30.042Z,5.50
2018-11-07T22:04:58.366Z,5.43
2018-11-07T22:07:27.365Z,5.20
2018-11-07T22:09:55.600Z,5.40
2018-11-07T22:12:23.898Z,5.33
2018-11-07T22:14:52.298Z,4.77
2018-11-07T22:17:21.025Z,4.90
2018-11-07T22:19:49.286Z,4.90
2018-11-07T22:22:17.620Z,5.23
2018-11-07T22:24:45.848Z,5.63
2018-11-07T22:27:15.916Z,4.53
2018-11-07T22:29:44.127Z,5.27
2018-11-07T22:32:12.371Z,4.33
2018-11-07T22:34:40.587Z,4.17
2018-11-07T22:37:08.859Z,4.53
2018-11-07T22:39:37.040Z,4.13
2018-11-07T22:42:06.051Z,4.20
2018-11-07T22:44:34.325Z,4.00
2018-11-07T22:47:02.559Z,3.73
2018-11-07T22:49:31.729Z,4.10
2018-11-07T22:51:59.983Z,3.60
2018-11-07T22:54:28.263Z,3.00
2018-11-07T22:56:56.459Z,3.07
2018-11-07T22:59:24.691Z,3.10
2018-11-07T23:01:53.255Z,3.20
2018-11-07T23:04:21.485Z,2.77
2018-11-07T23:06:56.024Z,2.83
2018-11-07T23:09:24.254Z,2.60
2018-11-07T23:11:52.509Z,2.60
2018-11-07T23:14:20.784Z,2.73
2018-11-07T23:16:49.067Z,2.87
2018-11-07T23:19:17.449Z,2.77
2018-11-07T23:21:45.641Z,2.63
2018-11-07T23:24:13.880Z,2.70
2018-11-07T23:26:42.448Z,2.70
2018-11-07T23:29:10.652Z,2.57
2018-11-07T23:31:38.956Z,3.40
2018-11-07T23:34:08.176Z,3.23
2018-11-07T23:36:36.425Z,2.57
2018-11-07T23:39:07.308Z,2.40
2018-11-07T23:41:35.530Z,3.23
2018-11-07T23:44:03.892Z,2.47
2018-11-07T23:46:32.258Z,3.20
2018-11-07T23:49:00.561Z,2.70
2018-11-07T23:51:28.756Z,2.47
2018-11-07T23:53:56.992Z,2.93
2018-11-07T23:56:25.205Z,2.50
2018-11-07T23:58:53.487Z,3.50
